sensor_id;sensor_type;location;lat;lon;timestamp;P1;durP1;ratioP1;P2;durP2;ratioP2
77018;SDS011;66044;53.142;17.962;2024-01-15T00:00:49;8.60;;;4.10;;
77018;SDS011;66044;53.142;17.962;2024-01-15T00:03:36;9.70;;;4.70;;
77018;SDS011;66044;53.142;17.962;2024-01-15T00:06:02;10.00;;;4.60;;
77018;SDS011;66044;53.142;17.962;2024-01-15T00:08:30;9.70;;;4.60;;
77018;SDS011;66044;53.142;17.962;2024-01-15T00:10:56;8.60;;;4.00;;
77018;SDS011;66044;53.142;17.962;2024-01-15T00:13:22;9.00;;;4.40;;
77018;SDS011;66044;53.142;17.962;2024-01-15T00:15:49;8.10;;;4.10;;
77018;SDS011;66044;53.142;17.962;2024-01-15T00:18:16;9.20;;;4.30;;
77018;SDS011;66044;53.142;17.962;2024-01-15T00:20:44;9.30;;;4.30;;
77018;SDS011;66044;53.142;17.962;2024-01-15T00:23:10;9.00;;;4.30;;
77018;SDS011;66044;53.142;17.962;2024-01-15T00:25:37;9.40;;;4.70;;
77018;SDS011;66044;53.142;17.962;2024-01-15T00:28:06;9.70;;;4.70;;
77018;SDS011;66044;53.142;17.962;2024-01-15T00:30:32;10.30;;;4.70;;
77018;SDS011;66044;53.142;17.962;2024-01-15T00:32:59;10.20;;;5.20;;
77018;SDS011;66044;53.142;17.962;2024-01-15T00:35:26;9.20;;;4.30;;
77018;SDS011;66044;53.142;17.962;2024-01-15T00:37:52;9.20;;;4.50;;
77018;SDS011;66044;53.142;17.962;2024-01-15T00:40:19;10.30;;;4.70;;
77018;SDS011;66044;53.142;17.962;2024-01-15T00:42:45;9.60;;;5.10;;
77018;SDS011;66044;53.142;17.962;2024-01-15T00:45:12;9.70;;;5.10;;
77018;SDS011;66044;53.142;17.962;2024-01-15T00:47:38;8.10;;;4.00;;
77018;SDS011;66044;53.142;17.962;2024-01-15T00:50:05;9.50;;;4.60;;
77018;SDS011;66044;53.142;17.962;2024-01-15T00:52:32;8.90;;;4.40;;
77018;SDS011;66044;53.142;17.962;2024-01-15T00:54:58;9.00;;;4.30;;
77018;SDS011;66044;53.142;17.962;2024-01-15T00:57:25;9.20;;;4.70;;
77018;SDS011;66044;53.142;17.962;2024-01-15T00:59:52;7.70;;;3.60;;
77018;SDS011;66044;53.142;17.962;2024-01-15T01:02:19;8.50;;;4.20;;
77018;SDS011;66044;53.142;17.962;2024-01-15T01:04:45;9.40;;;4.50;;
77018;SDS011;66044;53.142;17.962;2024-01-15T01:07:11;10.50;;;5.60;;
77018;SDS011;66044;53.142;17.962;2024-01-15T01:09:38;10.90;;;5.50;;
77018;SDS011;66044;53.142;17.962;2024-01-15T01:12:04;10.90;;;5.30;;
77018;SDS011;66044;53.142;17.962;2024-01-15T01:14:31;11.50;;;5.60;;
77018;SDS011;66044;53.142;17.962;2024-01-15T01:16:58;9.10;;;4.20;;
77018;SDS011;66044;53.142;17.962;2024-01-15T01:19:24;9.70;;;4.50;;
77018;SDS011;66044;53.142;17.962;2024-01-15T01:21:51;10.80;;;6.00;;
77018;SDS011;66044;53.142;17.962;2024-01-15T01:24:18;9.10;;;5.00;;
77018;SDS011;66044;53.142;17.962;2024-01-15T01:26:44;8.90;;;4.50;;
77018;SDS011;66044;53.142;17.962;2024-01-15T01:29:13;8.80;;;4.30;;
77018;SDS011;66044;53.142;17.962;2024-01-15T01:31:45;9.10;;;4.20;;
77018;SDS011;66044;53.142;17.962;2024-01-15T01:34:15;8.30;;;4.00;;
77018;SDS011;66044;53.142;17.962;2024-01-15T01:36:43;8.60;;;4.20;;
77018;SDS011;66044;53.142;17.962;2024-01-15T01:39:09;7.70;;;4.00;;
77018;SDS011;66044;53.142;17.962;2024-01-15T01:41:37;9.70;;;4.10;;
77018;SDS011;66044;53.142;17.962;2024-01-15T01:44:04;9.70;;;4.60;;
77018;SDS011;66044;53.142;17.962;2024-01-15T01:46:31;8.70;;;4.10;;
77018;SDS011;66044;53.142;17.962;2024-01-15T01:48:57;9.30;;;4.50;;
77018;SDS011;66044;53.142;17.962;2024-01-15T01:51:28;8.70;;;4.10;;
77018;SDS011;66044;53.142;17.962;2024-01-15T01:53:55;8.30;;;3.70;;
77018;SDS011;66044;53.142;17.962;2024-01-15T01:56:21;7.40;;;3.80;;
77018;SDS011;66044;53.142;17.962;2024-01-15T01:58:49;7.40;;;3.50;;
77018;SDS011;66044;53.142;17.962;2024-01-15T02:01:15;7.20;;;3.30;;
77018;SDS011;66044;53.142;17.962;2024-01-15T02:03:44;7.20;;;3.40;;
77018;SDS011;66044;53.142;17.962;2024-01-15T02:06:11;7.50;;;3.20;;
77018;SDS011;66044;53.142;17.962;2024-01-15T02:08:37;7.90;;;3.50;;
77018;SDS011;66044;53.142;17.962;2024-01-15T02:11:04;6.70;;;3.20;;
77018;SDS011;66044;53.142;17.962;2024-01-15T02:13:31;7.70;;;2.90;;
77018;SDS011;66044;53.142;17.962;2024-01-15T02:15:57;8.20;;;3.60;;
77018;SDS011;66044;53.142;17.962;2024-01-15T02:18:23;6.80;;;3.30;;
77018;SDS011;66044;53.142;17.962;2024-01-15T02:20:50;7.30;;;3.60;;
77018;SDS011;66044;53.142;17.962;2024-01-15T02:23:17;8.10;;;3.80;;
77018;SDS011;66044;53.142;17.962;2024-01-15T02:25:44;8.10;;;3.50;;
77018;SDS011;66044;53.142;17.962;2024-01-15T02:28:13;8.20;;;4.50;;
77018;SDS011;66044;53.142;17.962;2024-01-15T02:30:41;7.50;;;3.80;;
77018;SDS011;66044;53.142;17.962;2024-01-15T02:33:09;8.80;;;4.00;;
77018;SDS011;66044;53.142;17.962;2024-01-15T02:35:37;7.20;;;3.50;;
77018;SDS011;66044;53.142;17.962;2024-01-15T02:38:04;7.80;;;3.40;;
77018;SDS011;66044;53.142;17.962;2024-01-15T02:40:34;7.80;;;3.70;;
77018;SDS011;66044;53.142;17.962;2024-01-15T02:43:01;6.80;;;3.10;;
77018;SDS011;66044;53.142;17.962;2024-01-15T02:45:28;7.10;;;3.00;;
77018;SDS011;66044;53.142;17.962;2024-01-15T02:47:54;7.10;;;3.30;;
77018;SDS011;66044;53.142;17.962;2024-01-15T02:50:21;7.90;;;3.50;;
77018;SDS011;66044;53.142;17.962;2024-01-15T02:52:47;8.80;;;3.50;;
77018;SDS011;66044;53.142;17.962;2024-01-15T02:55:15;7.90;;;3.90;;
77018;SDS011;66044;53.142;17.962;2024-01-15T02:57:42;7.80;;;3.70;;
77018;SDS011;66044;53.142;17.962;2024-01-15T03:00:08;7.90;;;4.00;;
77018;SDS011;66044;53.142;17.962;2024-01-15T03:02:38;8.20;;;3.90;;
77018;SDS011;66044;53.142;17.962;2024-01-15T03:05:09;9.50;;;4.50;;
77018;SDS011;66044;53.142;17.962;2024-01-15T03:07:36;8.20;;;3.90;;
77018;SDS011;66044;53.142;17.962;2024-01-15T03:10:02;8.30;;;4.00;;
77018;SDS011;66044;53.142;17.962;2024-01-15T03:12:29;8.20;;;3.80;;
77018;SDS011;66044;53.142;17.962;2024-01-15T03:14:55;7.90;;;3.50;;
77018;SDS011;66044;53.142;17.962;2024-01-15T03:17:22;8.80;;;3.90;;
77018;SDS011;66044;53.142;17.962;2024-01-15T03:19:48;8.80;;;3.90;;
77018;SDS011;66044;53.142;17.962;2024-01-15T03:22:16;8.20;;;4.20;;
77018;SDS011;66044;53.142;17.962;2024-01-15T03:24:44;9.10;;;4.10;;
77018;SDS011;66044;53.142;17.962;2024-01-15T03:27:11;8.80;;;4.30;;
77018;SDS011;66044;53.142;17.962;2024-01-15T03:29:39;7.80;;;3.80;;
77018;SDS011;66044;53.142;17.962;2024-01-15T03:32:06;8.40;;;4.00;;
77018;SDS011;66044;53.142;17.962;2024-01-15T03:34:32;9.60;;;5.00;;
77018;SDS011;66044;53.142;17.962;2024-01-15T03:37:00;8.60;;;4.20;;
77018;SDS011;66044;53.142;17.962;2024-01-15T03:39:27;9.50;;;4.10;;
77018;SDS011;66044;53.142;17.962;2024-01-15T03:41:54;10.90;;;5.70;;
77018;SDS011;66044;53.142;17.962;2024-01-15T03:44:21;9.40;;;4.40;;
77018;SDS011;66044;53.142;17.962;2024-01-15T03:46:47;9.40;;;4.80;;
77018;SDS011;66044;53.142;17.962;2024-01-15T03:49:14;10.30;;;4.80;;
77018;SDS011;66044;53.142;17.962;2024-01-15T03:51:41;9.70;;;5.20;;
77018;SDS011;66044;53.142;17.962;2024-01-15T03:54:12;8.40;;;4.00;;
77018;SDS011;66044;53.142;17.962;2024-01-15T03:56:39;9.40;;;4.60;;
77018;SDS011;66044;53.142;17.962;2024-01-15T03:59:06;8.00;;;4.20;;
77018;SDS011;66044;53.142;17.962;2024-01-15T04:01:33;9.20;;;4.60;;
77018;SDS011;66044;53.142;17.962;2024-01-15T04:03:59;9.40;;;4.40;;
77018;SDS011;66044;53.142;17.962;2024-01-15T04:06:27;10.50;;;5.30;;
77018;SDS011;66044;53.142;17.962;2024-01-15T04:08:54;9.70;;;4.00;;
77018;SDS011;66044;53.142;17.962;2024-01-15T04:11:20;9.20;;;4.50;;
77018;SDS011;66044;53.142;17.962;2024-01-15T04:13:48;7.80;;;3.40;;
77018;SDS011;66044;53.142;17.962;2024-01-15T04:16:17;10.00;;;5.60;;
77018;SDS011;66044;53.142;17.962;2024-01-15T04:18:43;9.20;;;4.40;;
77018;SDS011;66044;53.142;17.962;2024-01-15T04:21:10;10.00;;;4.40;;
77018;SDS011;66044;53.142;17.962;2024-01-15T04:23:36;8.80;;;4.80;;
77018;SDS011;66044;53.142;17.962;2024-01-15T04:26:03;8.30;;;3.70;;
77018;SDS011;66044;53.142;17.962;2024-01-15T04:28:29;7.70;;;3.50;;
77018;SDS011;66044;53.142;17.962;2024-01-15T04:30:56;7.50;;;3.20;;
77018;SDS011;66044;53.142;17.962;2024-01-15T04:33:22;6.70;;;2.70;;
77018;SDS011;66044;53.142;17.962;2024-01-15T04:35:49;7.20;;;3.10;;
77018;SDS011;66044;53.142;17.962;2024-01-15T04:38:15;7.10;;;3.00;;
77018;SDS011;66044;53.142;17.962;2024-01-15T04:40:42;7.40;;;2.70;;
77018;SDS011;66044;53.142;17.962;2024-01-15T04:43:08;6.50;;;2.40;;
77018;SDS011;66044;53.142;17.962;2024-01-15T04:45:35;7.30;;;3.10;;
77018;SDS011;66044;53.142;17.962;2024-01-15T04:48:01;7.10;;;2.50;;
77018;SDS011;66044;53.142;17.962;2024-01-15T04:50:28;6.60;;;2.40;;
77018;SDS011;66044;53.142;17.962;2024-01-15T04:52:54;6.30;;;2.30;;
77018;SDS011;66044;53.142;17.962;2024-01-15T04:55:21;7.70;;;2.50;;
77018;SDS011;66044;53.142;17.962;2024-01-15T04:57:47;7.70;;;3.00;;
77018;SDS011;66044;53.142;17.962;2024-01-15T05:00:13;6.10;;;2.40;;
77018;SDS011;66044;53.142;17.962;2024-01-15T05:02:41;6.30;;;2.60;;
77018;SDS011;66044;53.142;17.962;2024-01-15T05:05:07;7.10;;;2.20;;
77018;SDS011;66044;53.142;17.962;2024-01-15T05:07:35;7.10;;;2.10;;
77018;SDS011;66044;53.142;17.962;2024-01-15T05:10:01;6.50;;;2.30;;
77018;SDS011;66044;53.142;17.962;2024-01-15T05:12:29;5.40;;;2.00;;
77018;SDS011;66044;53.142;17.962;2024-01-15T05:14:55;6.00;;;1.90;;
77018;SDS011;66044;53.142;17.962;2024-01-15T05:17:21;7.20;;;1.90;;
77018;SDS011;66044;53.142;17.962;2024-01-15T05:19:48;6.70;;;2.20;;
77018;SDS011;66044;53.142;17.962;2024-01-15T05:22:15;8.10;;;2.20;;
77018;SDS011;66044;53.142;17.962;2024-01-15T05:24:41;6.90;;;2.20;;
77018;SDS011;66044;53.142;17.962;2024-01-15T05:27:07;8.50;;;2.70;;
77018;SDS011;66044;53.142;17.962;2024-01-15T05:29:34;5.70;;;1.70;;
77018;SDS011;66044;53.142;17.962;2024-01-15T05:32:00;6.50;;;1.90;;
77018;SDS011;66044;53.142;17.962;2024-01-15T05:34:27;6.60;;;2.00;;
77018;SDS011;66044;53.142;17.962;2024-01-15T05:36:53;7.90;;;1.90;;
77018;SDS011;66044;53.142;17.962;2024-01-15T05:39:20;6.70;;;2.10;;
77018;SDS011;66044;53.142;17.962;2024-01-15T05:41:46;5.50;;;1.90;;
77018;SDS011;66044;53.142;17.962;2024-01-15T05:44:12;6.00;;;2.00;;
77018;SDS011;66044;53.142;17.962;2024-01-15T05:46:40;5.50;;;1.70;;
77018;SDS011;66044;53.142;17.962;2024-01-15T05:49:06;6.50;;;1.80;;
77018;SDS011;66044;53.142;17.962;2024-01-15T05:51:32;5.20;;;1.50;;
77018;SDS011;66044;53.142;17.962;2024-01-15T05:53:59;7.00;;;1.70;;
77018;SDS011;66044;53.142;17.962;2024-01-15T05:56:25;6.20;;;1.70;;
77018;SDS011;66044;53.142;17.962;2024-01-15T05:58:52;7.00;;;2.10;;
77018;SDS011;66044;53.142;17.962;2024-01-15T06:01:19;7.20;;;2.20;;
77018;SDS011;66044;53.142;17.962;2024-01-15T06:03:45;10.60;;;2.50;;
77018;SDS011;66044;53.142;17.962;2024-01-15T06:06:13;6.30;;;2.20;;
77018;SDS011;66044;53.142;17.962;2024-01-15T06:08:39;7.50;;;1.80;;
77018;SDS011;66044;53.142;17.962;2024-01-15T06:11:06;6.30;;;1.70;;
77018;SDS011;66044;53.142;17.962;2024-01-15T06:13:34;5.90;;;1.60;;
77018;SDS011;66044;53.142;17.962;2024-01-15T06:16:00;5.20;;;1.70;;
77018;SDS011;66044;53.142;17.962;2024-01-15T06:18:27;6.10;;;1.60;;
77018;SDS011;66044;53.142;17.962;2024-01-15T06:20:53;6.60;;;2.10;;
77018;SDS011;66044;53.142;17.962;2024-01-15T06:23:19;5.90;;;1.90;;
77018;SDS011;66044;53.142;17.962;2024-01-15T06:25:46;6.60;;;2.70;;
77018;SDS011;66044;53.142;17.962;2024-01-15T06:28:12;7.80;;;2.60;;
77018;SDS011;66044;53.142;17.962;2024-01-15T06:30:39;5.30;;;1.70;;
77018;SDS011;66044;53.142;17.962;2024-01-15T06:33:05;7.30;;;2.20;;
77018;SDS011;66044;53.142;17.962;2024-01-15T06:35:32;7.50;;;2.30;;
77018;SDS011;66044;53.142;17.962;2024-01-15T06:38:00;9.50;;;4.00;;
77018;SDS011;66044;53.142;17.962;2024-01-15T06:40:26;9.00;;;4.10;;
77018;SDS011;66044;53.142;17.962;2024-01-15T06:42:53;12.60;;;5.30;;
77018;SDS011;66044;53.142;17.962;2024-01-15T06:45:19;8.90;;;3.50;;
77018;SDS011;66044;53.142;17.962;2024-01-15T06:47:46;10.00;;;3.20;;
77018;SDS011;66044;53.142;17.962;2024-01-15T06:50:12;7.40;;;3.80;;
77018;SDS011;66044;53.142;17.962;2024-01-15T06:52:39;7.90;;;2.90;;
77018;SDS011;66044;53.142;17.962;2024-01-15T06:55:05;7.90;;;3.00;;
77018;SDS011;66044;53.142;17.962;2024-01-15T06:57:32;9.50;;;3.50;;
77018;SDS011;66044;53.142;17.962;2024-01-15T06:59:58;11.00;;;3.90;;
77018;SDS011;66044;53.142;17.962;2024-01-15T07:02:25;8.20;;;3.10;;
77018;SDS011;66044;53.142;17.962;2024-01-15T07:04:53;8.00;;;3.30;;
77018;SDS011;66044;53.142;17.962;2024-01-15T07:07:19;7.60;;;3.10;;
77018;SDS011;66044;53.142;17.962;2024-01-15T07:09:45;8.30;;;3.10;;
77018;SDS011;66044;53.142;17.962;2024-01-15T07:12:12;7.80;;;3.00;;
77018;SDS011;66044;53.142;17.962;2024-01-15T07:14:38;7.40;;;2.50;;
77018;SDS011;66044;53.142;17.962;2024-01-15T07:17:05;7.10;;;2.80;;
77018;SDS011;66044;53.142;17.962;2024-01-15T07:19:32;6.40;;;2.40;;
77018;SDS011;66044;53.142;17.962;2024-01-15T07:21:59;42.90;;;27.30;;
77018;SDS011;66044;53.142;17.962;2024-01-15T07:24:26;29.80;;;13.60;;
77018;SDS011;66044;53.142;17.962;2024-01-15T07:26:52;14.30;;;6.10;;
77018;SDS011;66044;53.142;17.962;2024-01-15T07:29:19;10.70;;;5.20;;
77018;SDS011;66044;53.142;17.962;2024-01-15T07:31:51;13.10;;;5.40;;
77018;SDS011;66044;53.142;17.962;2024-01-15T07:34:18;9.90;;;4.70;;
77018;SDS011;66044;53.142;17.962;2024-01-15T07:36:45;11.30;;;4.30;;
77018;SDS011;66044;53.142;17.962;2024-01-15T07:39:11;12.30;;;5.60;;
77018;SDS011;66044;53.142;17.962;2024-01-15T07:41:39;9.70;;;4.50;;
77018;SDS011;66044;53.142;17.962;2024-01-15T07:44:05;10.70;;;4.20;;
77018;SDS011;66044;53.142;17.962;2024-01-15T07:46:32;10.10;;;4.60;;
77018;SDS011;66044;53.142;17.962;2024-01-15T07:48:58;10.20;;;4.50;;
77018;SDS011;66044;53.142;17.962;2024-01-15T07:51:25;10.60;;;4.60;;
77018;SDS011;66044;53.142;17.962;2024-01-15T07:53:54;10.70;;;4.00;;
77018;SDS011;66044;53.142;17.962;2024-01-15T07:56:24;8.70;;;3.90;;
77018;SDS011;66044;53.142;17.962;2024-01-15T07:58:51;10.10;;;4.40;;
77018;SDS011;66044;53.142;17.962;2024-01-15T08:01:17;8.90;;;3.80;;
77018;SDS011;66044;53.142;17.962;2024-01-15T08:03:43;10.30;;;4.40;;
77018;SDS011;66044;53.142;17.962;2024-01-15T08:06:10;10.10;;;4.30;;
77018;SDS011;66044;53.142;17.962;2024-01-15T08:08:37;9.80;;;3.70;;
77018;SDS011;66044;53.142;17.962;2024-01-15T08:11:04;8.20;;;3.80;;
77018;SDS011;66044;53.142;17.962;2024-01-15T08:13:31;8.70;;;3.30;;
77018;SDS011;66044;53.142;17.962;2024-01-15T08:15:57;11.00;;;4.10;;
77018;SDS011;66044;53.142;17.962;2024-01-15T08:18:24;11.10;;;4.60;;
77018;SDS011;66044;53.142;17.962;2024-01-15T08:20:51;12.30;;;4.80;;
77018;SDS011;66044;53.142;17.962;2024-01-15T08:23:18;19.50;;;13.30;;
77018;SDS011;66044;53.142;17.962;2024-01-15T08:25:46;24.20;;;13.30;;
77018;SDS011;66044;53.142;17.962;2024-01-15T08:28:12;24.50;;;9.40;;
77018;SDS011;66044;53.142;17.962;2024-01-15T08:30:39;31.60;;;12.80;;
77018;SDS011;66044;53.142;17.962;2024-01-15T08:33:05;29.60;;;11.10;;
77018;SDS011;66044;53.142;17.962;2024-01-15T08:35:31;35.00;;;16.40;;
77018;SDS011;66044;53.142;17.962;2024-01-15T08:37:58;28.40;;;13.20;;
77018;SDS011;66044;53.142;17.962;2024-01-15T08:40:24;17.60;;;8.60;;
77018;SDS011;66044;53.142;17.962;2024-01-15T08:42:51;18.90;;;8.90;;
77018;SDS011;66044;53.142;17.962;2024-01-15T08:45:17;18.00;;;6.20;;
77018;SDS011;66044;53.142;17.962;2024-01-15T08:47:44;15.00;;;5.80;;
77018;SDS011;66044;53.142;17.962;2024-01-15T08:50:10;15.90;;;5.80;;
77018;SDS011;66044;53.142;17.962;2024-01-15T08:52:37;16.60;;;7.90;;
77018;SDS011;66044;53.142;17.962;2024-01-15T08:55:03;18.00;;;8.80;;
77018;SDS011;66044;53.142;17.962;2024-01-15T08:57:30;16.60;;;7.50;;
77018;SDS011;66044;53.142;17.962;2024-01-15T08:59:57;13.70;;;5.20;;
77018;SDS011;66044;53.142;17.962;2024-01-15T09:02:24;14.60;;;5.50;;
77018;SDS011;66044;53.142;17.962;2024-01-15T09:04:51;11.00;;;4.60;;
77018;SDS011;66044;53.142;17.962;2024-01-15T09:07:19;9.50;;;4.00;;
77018;SDS011;66044;53.142;17.962;2024-01-15T09:09:46;14.20;;;4.50;;
77018;SDS011;66044;53.142;17.962;2024-01-15T09:12:12;12.10;;;4.30;;
77018;SDS011;66044;53.142;17.962;2024-01-15T09:14:41;9.70;;;4.40;;
77018;SDS011;66044;53.142;17.962;2024-01-15T09:17:10;12.70;;;5.90;;
77018;SDS011;66044;53.142;17.962;2024-01-15T09:19:37;14.40;;;6.00;;
77018;SDS011;66044;53.142;17.962;2024-01-15T09:22:05;13.60;;;5.20;;
77018;SDS011;66044;53.142;17.962;2024-01-15T09:24:32;17.30;;;6.50;;
77018;SDS011;66044;53.142;17.962;2024-01-15T09:26:58;15.20;;;7.10;;
77018;SDS011;66044;53.142;17.962;2024-01-15T09:29:25;16.70;;;9.10;;
77018;SDS011;66044;53.142;17.962;2024-01-15T09:31:51;14.60;;;7.80;;
77018;SDS011;66044;53.142;17.962;2024-01-15T09:34:18;13.90;;;5.20;;
77018;SDS011;66044;53.142;17.962;2024-01-15T09:36:44;10.20;;;4.10;;
77018;SDS011;66044;53.142;17.962;2024-01-15T09:39:11;14.20;;;4.50;;
77018;SDS011;66044;53.142;17.962;2024-01-15T09:41:37;10.60;;;4.40;;
77018;SDS011;66044;53.142;17.962;2024-01-15T09:44:04;17.80;;;6.20;;
77018;SDS011;66044;53.142;17.962;2024-01-15T09:46:31;11.40;;;4.50;;
77018;SDS011;66044;53.142;17.962;2024-01-15T09:48:59;11.80;;;5.30;;
77018;SDS011;66044;53.142;17.962;2024-01-15T09:51:25;12.80;;;5.40;;
77018;SDS011;66044;53.142;17.962;2024-01-15T09:53:54;12.20;;;4.20;;
77018;SDS011;66044;53.142;17.962;2024-01-15T09:56:22;11.40;;;4.30;;
77018;SDS011;66044;53.142;17.962;2024-01-15T09:58:49;8.20;;;2.70;;
77018;SDS011;66044;53.142;17.962;2024-01-15T10:01:18;7.70;;;2.70;;
77018;SDS011;66044;53.142;17.962;2024-01-15T10:03:47;8.90;;;3.80;;
77018;SDS011;66044;53.142;17.962;2024-01-15T10:06:17;12.10;;;5.30;;
77018;SDS011;66044;53.142;17.962;2024-01-15T10:08:47;12.70;;;4.80;;
77018;SDS011;66044;53.142;17.962;2024-01-15T10:11:16;10.30;;;3.70;;
77018;SDS011;66044;53.142;17.962;2024-01-15T10:13:43;8.90;;;2.80;;
77018;SDS011;66044;53.142;17.962;2024-01-15T10:16:11;9.90;;;3.30;;
77018;SDS011;66044;53.142;17.962;2024-01-15T10:18:37;8.70;;;3.40;;
77018;SDS011;66044;53.142;17.962;2024-01-15T10:21:06;13.10;;;5.10;;
77018;SDS011;66044;53.142;17.962;2024-01-15T10:23:33;10.20;;;4.70;;
77018;SDS011;66044;53.142;17.962;2024-01-15T10:26:00;10.40;;;3.70;;
77018;SDS011;66044;53.142;17.962;2024-01-15T10:28:26;10.20;;;3.20;;
77018;SDS011;66044;53.142;17.962;2024-01-15T10:30:56;10.00;;;2.60;;
77018;SDS011;66044;53.142;17.962;2024-01-15T10:33:26;8.30;;;2.10;;
77018;SDS011;66044;53.142;17.962;2024-01-15T10:35:53;9.10;;;2.20;;
77018;SDS011;66044;53.142;17.962;2024-01-15T10:38:24;7.80;;;2.50;;
77018;SDS011;66044;53.142;17.962;2024-01-15T10:40:52;8.00;;;2.20;;
77018;SDS011;66044;53.142;17.962;2024-01-15T10:43:20;7.40;;;2.20;;
77018;SDS011;66044;53.142;17.962;2024-01-15T10:45:47;9.00;;;2.90;;
77018;SDS011;66044;53.142;17.962;2024-01-15T10:48:16;8.20;;;3.20;;
77018;SDS011;66044;53.142;17.962;2024-01-15T10:50:44;9.70;;;2.80;;
77018;SDS011;66044;53.142;17.962;2024-01-15T10:53:12;8.20;;;2.30;;
77018;SDS011;66044;53.142;17.962;2024-01-15T10:55:42;9.50;;;3.50;;
77018;SDS011;66044;53.142;17.962;2024-01-15T10:58:09;9.80;;;3.50;;
77018;SDS011;66044;53.142;17.962;2024-01-15T11:00:36;12.00;;;4.10;;
77018;SDS011;66044;53.142;17.962;2024-01-15T11:03:04;14.10;;;5.40;;
77018;SDS011;66044;53.142;17.962;2024-01-15T11:05:38;8.60;;;3.00;;
77018;SDS011;66044;53.142;17.962;2024-01-15T11:08:08;10.30;;;3.60;;
77018;SDS011;66044;53.142;17.962;2024-01-15T11:10:39;10.50;;;3.50;;
77018;SDS011;66044;53.142;17.962;2024-01-15T11:13:50;7.40;;;2.30;;
77018;SDS011;66044;53.142;17.962;2024-01-15T11:16:00;6.10;;;1.70;;
77018;SDS011;66044;53.142;17.962;2024-01-15T11:18:29;7.60;;;1.50;;
77018;SDS011;66044;53.142;17.962;2024-01-15T11:23:43;6.30;;;2.00;;
77018;SDS011;66044;53.142;17.962;2024-01-15T11:26:34;4.90;;;1.50;;
77018;SDS011;66044;53.142;17.962;2024-01-15T11:29:10;7.00;;;1.70;;
77018;SDS011;66044;53.142;17.962;2024-01-15T11:34:21;7.20;;;2.70;;
77018;SDS011;66044;53.142;17.962;2024-01-15T11:37:18;10.60;;;3.00;;
77018;SDS011;66044;53.142;17.962;2024-01-15T11:39:45;8.00;;;3.50;;
77018;SDS011;66044;53.142;17.962;2024-01-15T11:42:15;7.90;;;2.50;;
77018;SDS011;66044;53.142;17.962;2024-01-15T11:44:42;7.30;;;2.20;;
77018;SDS011;66044;53.142;17.962;2024-01-15T11:47:11;8.00;;;2.20;;
77018;SDS011;66044;53.142;17.962;2024-01-15T11:52:26;6.90;;;2.10;;
77018;SDS011;66044;53.142;17.962;2024-01-15T11:55:22;8.70;;;2.00;;
77018;SDS011;66044;53.142;17.962;2024-01-15T11:57:55;6.80;;;1.60;;
77018;SDS011;66044;53.142;17.962;2024-01-15T12:00:27;6.70;;;1.90;;
77018;SDS011;66044;53.142;17.962;2024-01-15T12:03:00;5.50;;;1.60;;
77018;SDS011;66044;53.142;17.962;2024-01-15T12:05:36;7.10;;;1.60;;
77018;SDS011;66044;53.142;17.962;2024-01-15T12:08:08;5.30;;;1.00;;
77018;SDS011;66044;53.142;17.962;2024-01-15T12:10:45;5.80;;;1.60;;
77018;SDS011;66044;53.142;17.962;2024-01-15T12:13:14;4.60;;;1.30;;
77018;SDS011;66044;53.142;17.962;2024-01-15T12:15:44;6.20;;;1.50;;
77018;SDS011;66044;53.142;17.962;2024-01-15T12:18:14;5.90;;;1.70;;
77018;SDS011;66044;53.142;17.962;2024-01-15T12:20:43;5.20;;;1.30;;
77018;SDS011;66044;53.142;17.962;2024-01-15T12:23:13;5.90;;;1.40;;
77018;SDS011;66044;53.142;17.962;2024-01-15T12:25:40;6.90;;;1.50;;
77018;SDS011;66044;53.142;17.962;2024-01-15T12:28:06;5.50;;;1.80;;
77018;SDS011;66044;53.142;17.962;2024-01-15T12:30:33;6.40;;;1.30;;
77018;SDS011;66044;53.142;17.962;2024-01-15T12:33:05;5.90;;;1.70;;
77018;SDS011;66044;53.142;17.962;2024-01-15T12:35:35;6.80;;;2.10;;
77018;SDS011;66044;53.142;17.962;2024-01-15T12:38:02;8.70;;;2.50;;
77018;SDS011;66044;53.142;17.962;2024-01-15T12:40:30;4.90;;;1.50;;
77018;SDS011;66044;53.142;17.962;2024-01-15T12:42:58;5.40;;;1.50;;
77018;SDS011;66044;53.142;17.962;2024-01-15T12:45:25;6.30;;;1.80;;
77018;SDS011;66044;53.142;17.962;2024-01-15T12:47:52;6.20;;;1.70;;
77018;SDS011;66044;53.142;17.962;2024-01-15T12:50:23;6.00;;;1.70;;
77018;SDS011;66044;53.142;17.962;2024-01-15T12:52:52;3.60;;;1.10;;
77018;SDS011;66044;53.142;17.962;2024-01-15T12:55:18;3.60;;;1.00;;
77018;SDS011;66044;53.142;17.962;2024-01-15T12:57:45;5.40;;;1.60;;
77018;SDS011;66044;53.142;17.962;2024-01-15T13:00:12;4.30;;;1.10;;
77018;SDS011;66044;53.142;17.962;2024-01-15T13:02:39;5.30;;;1.60;;
77018;SDS011;66044;53.142;17.962;2024-01-15T13:05:08;5.70;;;1.30;;
77018;SDS011;66044;53.142;17.962;2024-01-15T13:07:49;5.10;;;1.70;;
77018;SDS011;66044;53.142;17.962;2024-01-15T13:10:16;5.20;;;1.40;;
77018;SDS011;66044;53.142;17.962;2024-01-15T13:12:42;4.90;;;1.30;;
77018;SDS011;66044;53.142;17.962;2024-01-15T13:15:09;6.90;;;2.20;;
77018;SDS011;66044;53.142;17.962;2024-01-15T13:17:38;6.60;;;1.70;;
77018;SDS011;66044;53.142;17.962;2024-01-15T13:20:11;5.40;;;1.50;;
77018;SDS011;66044;53.142;17.962;2024-01-15T13:22:40;8.20;;;2.30;;
77018;SDS011;66044;53.142;17.962;2024-01-15T13:25:10;4.90;;;1.50;;
77018;SDS011;66044;53.142;17.962;2024-01-15T13:27:37;7.10;;;2.10;;
77018;SDS011;66044;53.142;17.962;2024-01-15T13:30:04;5.60;;;1.70;;
77018;SDS011;66044;53.142;17.962;2024-01-15T13:32:32;4.80;;;1.20;;
77018;SDS011;66044;53.142;17.962;2024-01-15T13:34:59;6.10;;;1.40;;
77018;SDS011;66044;53.142;17.962;2024-01-15T13:37:26;6.80;;;2.00;;
77018;SDS011;66044;53.142;17.962;2024-01-15T13:39:53;6.50;;;2.10;;
77018;SDS011;66044;53.142;17.962;2024-01-15T13:42:20;7.20;;;2.10;;
77018;SDS011;66044;53.142;17.962;2024-01-15T13:44:48;5.00;;;1.40;;
77018;SDS011;66044;53.142;17.962;2024-01-15T13:47:15;6.80;;;1.70;;
77018;SDS011;66044;53.142;17.962;2024-01-15T13:49:41;7.40;;;1.70;;
77018;SDS011;66044;53.142;17.962;2024-01-15T13:52:09;8.40;;;2.50;;
77018;SDS011;66044;53.142;17.962;2024-01-15T13:54:35;7.20;;;1.80;;
77018;SDS011;66044;53.142;17.962;2024-01-15T13:57:02;4.70;;;1.30;;
77018;SDS011;66044;53.142;17.962;2024-01-15T13:59:28;4.70;;;1.10;;
77018;SDS011;66044;53.142;17.962;2024-01-15T14:01:54;6.00;;;1.50;;
77018;SDS011;66044;53.142;17.962;2024-01-15T14:04:21;9.00;;;1.90;;
77018;SDS011;66044;53.142;17.962;2024-01-15T14:06:56;7.00;;;1.80;;
77018;SDS011;66044;53.142;17.962;2024-01-15T14:09:23;9.80;;;2.40;;
77018;SDS011;66044;53.142;17.962;2024-01-15T14:11:49;6.60;;;2.20;;
77018;SDS011;66044;53.142;17.962;2024-01-15T14:14:16;11.00;;;3.10;;
77018;SDS011;66044;53.142;17.962;2024-01-15T14:16:43;6.50;;;1.90;;
77018;SDS011;66044;53.142;17.962;2024-01-15T14:19:10;4.90;;;1.60;;
77018;SDS011;66044;53.142;17.962;2024-01-15T14:21:36;5.10;;;1.20;;
77018;SDS011;66044;53.142;17.962;2024-01-15T14:24:02;4.50;;;1.10;;
77018;SDS011;66044;53.142;17.962;2024-01-15T14:26:30;4.60;;;1.10;;
77018;SDS011;66044;53.142;17.962;2024-01-15T14:28:58;4.00;;;1.00;;
77018;SDS011;66044;53.142;17.962;2024-01-15T14:31:25;3.70;;;1.10;;
77018;SDS011;66044;53.142;17.962;2024-01-15T14:33:52;4.10;;;0.90;;
77018;SDS011;66044;53.142;17.962;2024-01-15T14:36:19;4.60;;;1.20;;
77018;SDS011;66044;53.142;17.962;2024-01-15T14:38:45;4.90;;;1.20;;
77018;SDS011;66044;53.142;17.962;2024-01-15T14:41:12;4.20;;;1.30;;